Impacts TAF Board
For situational awareness. Not to be used for flight planning purposes.
IDs:

KPDX - Portland Intl Arpt, OR, US

Issued at 1450 UTC 01 Mar 2021
Updated at 1634 UTC 01 Mar 2021
Potential Impact None Slight Moderate High
Time1553Z 01/17Z 01/18Z 01/19Z 01/20Z 01/21Z 01/22Z 01/23Z 02/00Z 02/01Z 02/02Z 02/03Z 02/04Z 02/05Z>>
Type OBS PRVL PRVL PRVL PRVL PRVL PRVL PRVL PRVL PRVL PRVL PRVL PRVL PRVL
VIS 10 >6 >6 >6 >6 >6 >6 >6 >6 >6 >6 >6 >6 >6
CIG 250 200 200 200 200 200 200 -- -- -- -- -- -- --
Cover BKN BKN BKN BKN BKN BKN BKN FEW FEW FEW FEW FEW FEW FEW
FltCat VFR VFR VFR VFR VFR VFR VFR VFR VFR VFR VFR VFR VFR VFR
WX -- -- -- -- -- -- -- -- -- -- -- -- -- --
WDir VRB VRB VRB VRB VRB VRB VRB 270 270 270 270 270 270 VRB
WSpd 0 3 3 3 3 3 3 7 7 7 7 7 7 4
WGst -- -- -- -- -- -- -- -- -- -- -- -- -- --
Raw TAF
KPDX 011450Z 0115/0212 VRB03KT P6SM BKN200
  FM012300 27007KT P6SM FEW250
  FM020500 VRB04KT P6SM FEW150
  FM021000 26005KT P6SM SCT015


Raw METAR
KPDX 011553Z 00000KT 10SM SCT210 BKN250 05/03 A3008 RMK AO2 SLP184 T00500028
KPDX 011453Z 00000KT 10SM BKN210 04/02 A3007 RMK AO2 SLP180 T00440022 56008
KPDX 011353Z 00000KT 10SM BKN220 04/02 A3007 RMK AO2 SLP182 T00440022

METAR Board
Radar Display
Forecast Discussion
For situational awareness. Not to be used for flight planning purposes.